createdAt,value
2018-07-24T00:01:13.717Z,6.63
2018-07-24T00:03:41.030Z,6.73
2018-07-24T00:06:08.402Z,6.13
2018-07-24T00:08:35.735Z,5.77
2018-07-24T00:11:03.207Z,6.37
2018-07-24T00:13:30.612Z,6.77
2018-07-24T00:15:58.128Z,6.90
2018-07-24T00:18:26.170Z,6.93
2018-07-24T00:20:53.560Z,7.17
2018-07-24T00:23:22.496Z,7.60
2018-07-24T00:25:50.761Z,7.77
2018-07-24T00:28:18.288Z,7.40
2018-07-24T00:30:46.644Z,7.70
2018-07-24T00:33:14.123Z,7.30
2018-07-24T00:35:43.499Z,6.70
2018-07-24T00:38:10.932Z,7.23
2018-07-24T00:40:38.283Z,8.50
2018-07-24T00:43:06.607Z,6.20
2018-07-24T00:45:35.051Z,6.63
2018-07-24T00:48:02.429Z,6.00
2018-07-24T00:50:30.763Z,6.80
2018-07-24T00:53:02.118Z,7.57
2018-07-24T00:55:29.539Z,6.67
2018-07-24T00:57:57.950Z,6.60
2018-07-24T01:00:26.190Z,8.20
2018-07-24T01:02:53.534Z,7.83
2018-07-24T01:05:20.972Z,7.53
2018-07-24T01:07:48.547Z,7.70
2018-07-24T01:10:15.931Z,6.85
2018-07-24T01:12:43.876Z,7.45
2018-07-24T01:15:11.246Z,7.07
2018-07-24T01:17:38.686Z,7.57
2018-07-24T01:20:06.054Z,7.37
2018-07-24T01:22:34.359Z,7.83
2018-07-24T01:25:02.758Z,7.60
2018-07-24T01:27:30.206Z,8.13
2018-07-24T01:29:57.619Z,7.50
2018-07-24T01:32:25.266Z,8.00
2018-07-24T01:34:53.174Z,8.83
2018-07-24T01:37:20.699Z,9.10
2018-07-24T01:39:48.151Z,7.57
2018-07-24T01:42:15.665Z,9.40
2018-07-24T01:44:43.419Z,8.68
2018-07-24T01:47:10.881Z,8.47
2018-07-24T01:49:38.427Z,8.05
2018-07-24T01:52:05.763Z,8.00
2018-07-24T01:54:33.499Z,7.47
2018-07-24T01:57:00.971Z,8.30
2018-07-24T01:59:33.042Z,8.10
2018-07-24T02:02:00.491Z,8.80
2018-07-24T02:04:33.888Z,8.03
2018-07-24T02:07:05.563Z,7.47
2018-07-24T02:22:33.668Z,8.63
2018-07-24T02:25:01.090Z,7.50
2018-07-24T02:27:28.881Z,7.78
2018-07-24T02:30:00.558Z,8.40
2018-07-24T02:32:28.058Z,8.57
2018-07-24T02:35:01.295Z,7.40
2018-07-24T02:37:28.847Z,8.40
2018-07-24T02:39:56.181Z,7.83
2018-07-24T02:42:23.520Z,8.93
2018-07-24T02:44:51.083Z,8.50
2018-07-24T02:47:18.500Z,8.40
2018-07-24T02:49:45.972Z,9.27
2018-07-24T02:52:13.341Z,8.48
2018-07-24T02:54:43.504Z,8.23
2018-07-24T02:57:19.215Z,8.60
2018-07-24T02:59:46.592Z,8.63
2018-07-24T03:02:14.029Z,8.90
2018-07-24T03:04:42.685Z,9.53
2018-07-24T03:07:10.056Z,8.10
2018-07-24T03:09:37.741Z,8.07
2018-07-24T03:12:05.266Z,6.90
2018-07-24T03:14:32.668Z,8.63
2018-07-24T03:17:00.405Z,8.58
2018-07-24T03:19:27.984Z,8.30
2018-07-24T03:31:40.368Z,8.95
2018-07-24T03:43:56.863Z,9.43
2018-07-24T03:46:24.970Z,9.13
2018-07-24T03:48:52.315Z,9.73
2018-07-24T03:51:20.418Z,10.97
2018-07-24T03:53:47.834Z,10.65
2018-07-24T03:56:15.175Z,10.32
2018-07-24T04:08:27.669Z,10.23
2018-07-24T04:10:55.725Z,10.38
2018-07-24T04:13:23.512Z,11.12
2018-07-24T04:15:50.928Z,12.45
2018-07-24T04:18:18.560Z,10.77
2018-07-24T04:20:46.024Z,9.85
2018-07-24T04:23:13.452Z,10.20
2018-07-24T04:25:40.913Z,10.20
2018-07-24T04:28:09.302Z,9.97
2018-07-24T04:30:36.670Z,11.07
2018-07-24T04:33:04.333Z,11.80
2018-07-24T04:35:31.793Z,11.50
2018-07-24T04:38:04.414Z,11.80
2018-07-24T04:40:31.840Z,11.30
2018-07-24T04:42:59.228Z,11.07
2018-07-24T04:45:27.450Z,11.63
2018-07-24T04:47:55.696Z,10.37
2018-07-24T04:50:23.668Z,11.53
2018-07-24T04:52:51.315Z,11.83
2018-07-24T04:55:25.805Z,11.20
2018-07-24T04:57:57.063Z,9.93
2018-07-24T05:00:24.396Z,11.47
2018-07-24T05:02:56.451Z,12.33
2018-07-24T05:05:23.892Z,10.83
2018-07-24T05:17:37.172Z,11.70
2018-07-24T05:20:04.780Z,11.77
2018-07-24T05:22:32.754Z,11.50
2018-07-24T05:25:00.939Z,11.40
2018-07-24T05:27:28.388Z,11.70
2018-07-24T05:29:56.362Z,11.30
2018-07-24T05:32:24.949Z,11.83
2018-07-24T05:34:53.341Z,10.70
2018-07-24T05:37:20.737Z,13.73
2018-07-24T05:39:48.150Z,11.60
2018-07-24T05:42:15.820Z,11.27
2018-07-24T05:44:43.254Z,10.80
2018-07-24T05:47:10.561Z,11.27
2018-07-24T05:49:37.845Z,12.70
2018-07-24T05:52:05.168Z,10.93
2018-07-24T05:54:32.459Z,10.77
2018-07-24T05:56:59.795Z,10.23
2018-07-24T05:59:27.175Z,10.37
2018-07-24T06:01:54.505Z,10.90
2018-07-24T06:04:21.790Z,10.90
2018-07-24T06:06:49.089Z,11.80
2018-07-24T06:09:16.478Z,9.87
2018-07-24T06:11:43.747Z,10.90
2018-07-24T06:14:11.235Z,10.23
2018-07-24T06:16:38.613Z,11.60
2018-07-24T06:19:05.819Z,10.43
2018-07-24T06:21:33.134Z,10.23
2018-07-24T06:24:00.460Z,10.90
2018-07-24T06:26:27.764Z,9.23
2018-07-24T06:28:55.080Z,9.07
2018-07-24T06:31:22.404Z,9.50
2018-07-24T06:33:49.738Z,9.00
2018-07-24T06:36:17.137Z,8.67
2018-07-24T06:38:44.475Z,8.20
2018-07-24T06:41:11.814Z,10.90
2018-07-24T06:43:39.236Z,8.87
2018-07-24T06:46:06.514Z,7.80
2018-07-24T06:48:33.827Z,7.97
2018-07-24T06:51:01.156Z,7.53
2018-07-24T06:53:28.374Z,8.50
2018-07-24T06:55:55.680Z,7.80
2018-07-24T06:58:23.286Z,7.03
2018-07-24T07:00:50.606Z,7.00
2018-07-24T07:03:17.909Z,7.57
2018-07-24T07:05:45.204Z,7.30
2018-07-24T07:08:12.482Z,7.20
2018-07-24T07:10:39.881Z,7.07
2018-07-24T07:13:07.313Z,6.33
2018-07-24T07:15:34.589Z,7.20
2018-07-24T07:18:03.078Z,7.40
2018-07-24T07:20:31.711Z,6.93
2018-07-24T07:22:58.969Z,7.20
2018-07-24T07:25:26.321Z,8.13
2018-07-24T07:27:54.735Z,6.33
2018-07-24T07:30:23.135Z,8.80
2018-07-24T07:32:50.467Z,6.97
2018-07-24T07:35:17.772Z,7.13
2018-07-24T07:37:45.081Z,6.93
2018-07-24T07:40:12.469Z,6.20
2018-07-24T07:42:39.763Z,6.53
2018-07-24T07:45:07.105Z,7.27
2018-07-24T07:47:34.359Z,6.87
2018-07-24T07:50:01.706Z,7.10
2018-07-24T07:52:29.617Z,7.07
2018-07-24T07:54:56.927Z,7.20
2018-07-24T07:57:24.281Z,5.87
2018-07-24T07:59:51.598Z,7.47
2018-07-24T08:02:18.923Z,7.17
2018-07-24T08:04:46.270Z,6.70
2018-07-24T08:07:13.576Z,6.37
2018-07-24T08:09:40.909Z,6.40
2018-07-24T08:12:08.195Z,5.80
2018-07-24T08:14:35.471Z,6.70
2018-07-24T08:17:02.808Z,6.17
2018-07-24T08:19:30.074Z,6.53
2018-07-24T08:21:57.391Z,5.27
2018-07-24T08:24:24.757Z,5.20
2018-07-24T08:26:52.092Z,5.80
2018-07-24T08:29:19.491Z,5.70
2018-07-24T08:31:46.812Z,5.87
2018-07-24T08:34:14.075Z,6.70
2018-07-24T08:36:41.393Z,5.57
2018-07-24T08:39:09.727Z,5.60
2018-07-24T08:41:37.042Z,5.67
2018-07-24T08:44:04.318Z,5.60
2018-07-24T08:46:31.630Z,5.33
2018-07-24T08:48:59.003Z,5.00
2018-07-24T08:51:26.573Z,5.67
2018-07-24T08:53:54.365Z,4.20
2018-07-24T08:56:21.364Z,5.20
2018-07-24T08:58:49.368Z,5.03
2018-07-24T09:01:17.341Z,4.67
2018-07-24T09:03:44.802Z,4.73
2018-07-24T09:06:12.067Z,4.83
2018-07-24T09:08:39.372Z,4.90
2018-07-24T09:11:06.730Z,4.63
2018-07-24T09:13:34.072Z,4.80
2018-07-24T09:16:01.444Z,5.37
2018-07-24T09:18:28.738Z,4.50
2018-07-24T09:20:56.141Z,5.10
2018-07-24T09:23:23.427Z,5.17
2018-07-24T09:25:50.748Z,5.20
2018-07-24T09:28:18.042Z,4.73
2018-07-24T09:30:45.328Z,4.50
2018-07-24T09:33:12.668Z,4.30
2018-07-24T09:35:39.990Z,4.67
2018-07-24T09:38:07.341Z,5.57
2018-07-24T09:40:34.702Z,4.87
2018-07-24T09:43:02.048Z,5.00
2018-07-24T09:45:29.387Z,4.70
2018-07-24T09:47:56.759Z,4.60
2018-07-24T09:50:24.114Z,4.87
2018-07-24T09:52:51.395Z,5.03
2018-07-24T09:55:18.688Z,4.27
2018-07-24T09:57:45.979Z,4.70
2018-07-24T10:00:13.455Z,4.53
2018-07-24T10:02:40.777Z,5.13
2018-07-24T10:05:09.355Z,4.73
2018-07-24T10:07:36.980Z,4.60
2018-07-24T10:10:05.032Z,4.97
2018-07-24T10:12:32.992Z,4.30
2018-07-24T10:15:00.388Z,4.47
2018-07-24T10:17:28.114Z,4.13
2018-07-24T10:19:56.433Z,4.90
2018-07-24T10:22:24.406Z,5.13
2018-07-24T10:24:52.198Z,4.47
2018-07-24T10:27:19.527Z,5.23
2018-07-24T10:39:32.080Z,4.50
2018-07-24T10:41:59.379Z,5.40
2018-07-24T10:44:26.775Z,5.53
2018-07-24T10:46:54.102Z,4.80
2018-07-24T10:49:21.563Z,4.77
2018-07-24T10:51:48.839Z,4.40
2018-07-24T10:54:16.232Z,4.40
2018-07-24T10:56:43.629Z,4.30
2018-07-24T10:59:10.959Z,4.27
2018-07-24T11:01:38.719Z,4.50
2018-07-24T11:04:06.109Z,4.80
2018-07-24T11:06:33.404Z,3.60
2018-07-24T11:09:00.699Z,4.30
2018-07-24T11:11:28.106Z,3.90
2018-07-24T11:13:55.390Z,3.97
2018-07-24T11:16:22.828Z,4.67
2018-07-24T11:18:50.226Z,4.30
2018-07-24T11:21:17.532Z,3.83
2018-07-24T11:23:44.962Z,3.90
2018-07-24T11:26:12.355Z,4.00
2018-07-24T11:28:39.718Z,4.20
2018-07-24T11:31:07.594Z,4.30
2018-07-24T11:33:35.035Z,4.20
2018-07-24T11:36:02.368Z,3.80
2018-07-24T11:38:29.671Z,4.40
2018-07-24T11:40:57.028Z,4.00
2018-07-24T11:43:24.336Z,4.23
2018-07-24T11:45:51.728Z,3.90
2018-07-24T11:48:19.171Z,4.00
2018-07-24T11:50:46.531Z,4.23
2018-07-24T11:53:14.540Z,4.00
2018-07-24T11:55:42.624Z,4.37
2018-07-24T11:58:10.068Z,4.33
2018-07-24T12:00:38.408Z,4.63
2018-07-24T12:03:06.103Z,4.30
2018-07-24T12:05:34.154Z,4.40
2018-07-24T12:08:01.590Z,4.20
2018-07-24T12:10:28.957Z,4.53
2018-07-24T12:12:57.298Z,4.40
2018-07-24T12:15:24.588Z,4.60
2018-07-24T12:17:51.883Z,4.20
2018-07-24T12:20:19.269Z,4.00
2018-07-24T12:22:46.576Z,4.10
2018-07-24T12:25:13.875Z,4.50
2018-07-24T12:27:41.127Z,4.50
2018-07-24T12:30:08.421Z,3.90
2018-07-24T12:32:35.696Z,4.50
2018-07-24T12:35:05.314Z,4.90
2018-07-24T12:37:32.613Z,4.47
2018-07-24T12:39:59.909Z,4.50
2018-07-24T12:42:28.740Z,4.40
2018-07-24T12:44:56.150Z,3.97
2018-07-24T12:47:23.548Z,4.10
2018-07-24T12:49:50.840Z,4.00
2018-07-24T12:52:18.156Z,4.00
2018-07-24T12:54:45.540Z,3.57
2018-07-24T12:57:12.856Z,4.10
2018-07-24T12:59:40.150Z,4.67
2018-07-24T13:02:07.659Z,4.03
2018-07-24T13:04:34.975Z,3.90
2018-07-24T13:07:02.856Z,4.40
2018-07-24T13:09:30.537Z,4.10
2018-07-24T13:11:57.833Z,4.27
2018-07-24T13:14:25.335Z,4.33
2018-07-24T13:16:52.619Z,4.70
2018-07-24T13:19:19.965Z,4.90
2018-07-24T13:21:47.279Z,4.23
2018-07-24T13:24:14.630Z,4.20
2018-07-24T13:26:41.969Z,4.00
2018-07-24T13:29:09.296Z,4.20
2018-07-24T13:31:36.645Z,4.10
2018-07-24T13:34:03.904Z,3.60
2018-07-24T13:36:31.163Z,4.03
2018-07-24T13:38:58.484Z,3.97
2018-07-24T13:41:25.854Z,4.90
2018-07-24T13:43:53.219Z,4.03
2018-07-24T13:46:20.504Z,4.40
2018-07-24T13:48:47.798Z,5.10
2018-07-24T13:51:15.115Z,4.10
2018-07-24T13:53:42.374Z,4.00
2018-07-24T13:56:09.705Z,4.30
2018-07-24T13:58:36.972Z,4.00
2018-07-24T14:01:07.420Z,3.63
2018-07-24T14:03:35.350Z,4.80
2018-07-24T14:06:02.663Z,4.10
2018-07-24T14:08:30.016Z,3.57
2018-07-24T14:10:57.348Z,3.83
2018-07-24T14:13:24.622Z,4.13
2018-07-24T14:15:52.327Z,4.00
2018-07-24T14:18:20.216Z,4.23
2018-07-24T14:20:48.139Z,4.50
2018-07-24T14:23:15.525Z,4.00
2018-07-24T14:25:42.855Z,4.13
2018-07-24T14:28:10.170Z,3.80
2018-07-24T14:30:38.282Z,4.30
2018-07-24T14:33:05.706Z,4.20
2018-07-24T14:35:33.098Z,4.40
2018-07-24T14:38:00.449Z,4.50
2018-07-24T14:40:28.675Z,4.83
2018-07-24T14:42:57.402Z,4.90
2018-07-24T14:45:24.717Z,4.30
2018-07-24T14:47:52.025Z,3.97
2018-07-24T14:50:20.317Z,3.90
2018-07-24T14:52:48.616Z,3.90
2018-07-24T14:55:15.864Z,4.70
2018-07-24T14:57:43.171Z,3.97
2018-07-24T15:00:10.502Z,4.50
2018-07-24T15:02:37.850Z,4.17
2018-07-24T15:05:05.246Z,4.50
2018-07-24T15:07:32.634Z,4.10
2018-07-24T15:09:59.931Z,4.13
2018-07-24T15:12:27.338Z,4.17
2018-07-24T15:14:54.644Z,4.27
2018-07-24T15:17:21.952Z,4.40
2018-07-24T15:19:49.276Z,4.10
2018-07-24T15:22:17.521Z,4.20
2018-07-24T15:24:44.868Z,4.27
2018-07-24T15:27:12.188Z,4.60
2018-07-24T15:29:39.553Z,4.47
2018-07-24T15:32:06.900Z,4.03
2018-07-24T15:34:34.367Z,4.00
2018-07-24T15:37:02.695Z,3.83
2018-07-24T15:39:30.034Z,4.23
2018-07-24T15:41:57.738Z,4.00
2018-07-24T15:44:26.050Z,3.80
2018-07-24T15:46:53.451Z,4.10
2018-07-24T15:49:20.800Z,4.40
2018-07-24T15:51:48.111Z,4.53
2018-07-24T15:54:15.429Z,4.37
2018-07-24T15:56:42.729Z,4.27
2018-07-24T15:59:10.015Z,4.50
2018-07-24T16:01:37.356Z,4.70
2018-07-24T16:04:04.699Z,4.07
2018-07-24T16:06:32.063Z,3.97
2018-07-24T16:08:59.432Z,4.60
2018-07-24T16:11:26.745Z,4.37
2018-07-24T16:13:54.118Z,4.40
2018-07-24T16:16:21.516Z,4.30
2018-07-24T16:18:48.821Z,3.77
2018-07-24T16:21:16.160Z,3.43
2018-07-24T16:23:43.435Z,3.90
2018-07-24T16:26:10.816Z,3.50
2018-07-24T16:28:38.316Z,3.67
2018-07-24T16:31:05.714Z,3.80
2018-07-24T16:33:33.014Z,4.10
2018-07-24T16:36:00.309Z,4.03
2018-07-24T16:38:27.613Z,3.87
2018-07-24T16:40:54.905Z,3.90
2018-07-24T16:43:22.216Z,4.07
2018-07-24T16:45:49.544Z,3.60
2018-07-24T16:48:16.812Z,3.93
2018-07-24T16:50:44.194Z,4.17
2018-07-24T16:53:11.523Z,4.30
2018-07-24T16:55:38.934Z,3.47
2018-07-24T16:58:06.297Z,3.53
2018-07-24T17:00:33.614Z,3.20
2018-07-24T17:03:00.960Z,3.80
2018-07-24T17:05:28.231Z,3.70
2018-07-24T17:07:56.473Z,3.40
2018-07-24T17:10:23.779Z,3.50
2018-07-24T17:12:51.046Z,3.97
2018-07-24T17:15:18.412Z,3.83
2018-07-24T17:17:45.718Z,4.10
2018-07-24T17:20:13.049Z,3.30
2018-07-24T17:22:40.646Z,3.20
2018-07-24T17:25:08.047Z,3.23
2018-07-24T17:27:35.800Z,3.30
2018-07-24T17:30:03.330Z,3.27
2018-07-24T17:32:31.370Z,3.40
2018-07-24T17:34:59.289Z,3.93
2018-07-24T17:37:26.711Z,3.97
2018-07-24T17:49:39.039Z,3.77
2018-07-24T17:52:07.087Z,3.63
2018-07-24T17:54:34.485Z,3.50
2018-07-24T17:57:02.851Z,4.00
2018-07-24T17:59:31.043Z,4.20
2018-07-24T18:01:59.076Z,3.77
2018-07-24T18:04:27.455Z,3.83
2018-07-24T18:06:54.880Z,4.17
2018-07-24T18:09:24.325Z,4.00
2018-07-24T18:11:51.719Z,5.77
2018-07-24T18:14:23.871Z,4.30
2018-07-24T18:16:51.298Z,4.37
2018-07-24T18:19:18.743Z,4.30
2018-07-24T18:21:46.115Z,4.50
2018-07-24T18:24:13.430Z,4.13
2018-07-24T18:26:40.937Z,4.40
2018-07-24T18:29:08.251Z,4.90
2018-07-24T18:31:35.573Z,4.47
2018-07-24T18:34:04.029Z,4.30
2018-07-24T18:36:31.341Z,4.60
2018-07-24T18:38:58.692Z,4.40
2018-07-24T18:41:25.992Z,5.83
2018-07-24T18:43:53.326Z,4.87
2018-07-24T18:46:20.694Z,6.93
2018-07-24T18:48:49.910Z,5.43
2018-07-24T18:51:17.203Z,5.47
2018-07-24T18:53:44.586Z,5.00
2018-07-24T18:56:11.889Z,4.97
2018-07-24T18:58:39.300Z,5.27
2018-07-24T19:01:07.265Z,4.13
2018-07-24T19:03:35.524Z,5.43
2018-07-24T19:06:02.924Z,4.77
2018-07-24T19:08:30.182Z,4.40
2018-07-24T19:10:57.491Z,4.60
2018-07-24T19:13:24.935Z,4.23
2018-07-24T19:15:52.327Z,4.30
2018-07-24T19:18:19.655Z,4.60
2018-07-24T19:20:47.614Z,4.10
2018-07-24T19:23:15.033Z,4.90
2018-07-24T19:25:42.397Z,4.33
2018-07-24T19:28:09.705Z,4.53
2018-07-24T19:30:37.105Z,4.90
2018-07-24T19:33:08.789Z,4.80
2018-07-24T19:35:40.714Z,4.50
2018-07-24T19:38:08.113Z,5.20
2018-07-24T19:40:35.518Z,5.40
2018-07-24T19:43:03.008Z,5.03
2018-07-24T19:45:34.384Z,5.50
2018-07-24T19:48:01.729Z,4.77
2018-07-24T19:50:29.119Z,4.60
2018-07-24T19:52:56.502Z,5.23
2018-07-24T19:55:23.982Z,4.70
2018-07-24T19:57:51.395Z,5.13
2018-07-24T20:00:18.728Z,4.57
2018-07-24T20:02:46.230Z,4.63
2018-07-24T20:05:13.663Z,4.50
2018-07-24T20:07:41.148Z,4.53
2018-07-24T20:10:09.260Z,5.00
2018-07-24T20:12:41.499Z,5.60
2018-07-24T20:15:14.062Z,5.13
2018-07-24T20:17:41.435Z,5.63
2018-07-24T20:20:08.753Z,5.20
2018-07-24T20:22:36.652Z,6.20
2018-07-24T20:25:04.443Z,5.20
2018-07-24T20:27:31.863Z,8.20
2018-07-24T20:29:59.592Z,6.60
2018-07-24T20:32:27.036Z,5.63
2018-07-24T20:34:54.463Z,5.23
2018-07-24T20:37:22.794Z,6.20
2018-07-24T20:39:50.295Z,5.87
2018-07-24T20:42:17.730Z,5.53
2018-07-24T20:44:45.098Z,5.43
2018-07-24T20:47:13.109Z,5.27
2018-07-24T20:49:40.812Z,6.07
2018-07-24T20:52:08.272Z,6.13
2018-07-24T20:54:35.665Z,5.80
2018-07-24T20:57:03.252Z,6.47
2018-07-24T20:59:31.206Z,5.90
2018-07-24T21:01:58.723Z,5.93
2018-07-24T21:04:30.308Z,6.20
2018-07-24T21:06:57.716Z,6.27
2018-07-24T21:09:25.176Z,6.17
2018-07-24T21:11:52.824Z,6.67
2018-07-24T21:14:20.496Z,5.80
2018-07-24T21:16:47.826Z,6.23
2018-07-24T21:19:15.609Z,6.60
2018-07-24T21:21:42.981Z,6.30
2018-07-24T21:24:10.294Z,7.17
2018-07-24T21:26:37.689Z,6.20
2018-07-24T21:29:06.266Z,6.90
2018-07-24T21:31:33.671Z,6.30
2018-07-24T21:34:00.979Z,7.30
2018-07-24T21:36:28.387Z,6.37
2018-07-24T21:38:55.714Z,6.50
2018-07-24T21:41:23.116Z,6.10
2018-07-24T21:43:50.505Z,5.60
2018-07-24T21:46:18.268Z,6.60
2018-07-24T21:48:45.766Z,5.90
2018-07-24T21:51:13.199Z,6.30
2018-07-24T21:53:40.533Z,7.23
2018-07-24T21:56:08.306Z,6.27
2018-07-24T21:58:35.686Z,6.00
2018-07-24T22:01:08.510Z,6.40
2018-07-24T22:03:35.927Z,6.80
2018-07-24T22:06:03.250Z,5.70
2018-07-24T22:08:30.644Z,6.80
2018-07-24T22:10:58.047Z,6.40
2018-07-24T22:13:25.467Z,7.30
2018-07-24T22:15:52.849Z,6.57
2018-07-24T22:18:20.271Z,6.80
2018-07-24T22:20:47.963Z,7.27
2018-07-24T22:23:15.307Z,7.03
2018-07-24T22:25:46.910Z,6.90
2018-07-24T22:28:14.278Z,7.30
2018-07-24T22:30:42.702Z,6.83
2018-07-24T22:46:10.341Z,5.90
2018-07-24T22:48:37.734Z,6.13
2018-07-24T22:51:06.023Z,6.13
2018-07-24T22:53:33.303Z,6.87
2018-07-24T22:56:00.678Z,7.13
2018-07-24T22:58:28.034Z,7.67
2018-07-24T23:00:55.439Z,6.77
2018-07-24T23:03:22.795Z,6.60
2018-07-24T23:05:50.092Z,7.00
2018-07-24T23:18:02.522Z,7.93
2018-07-24T23:20:29.839Z,7.27
2018-07-24T23:22:58.161Z,6.63
2018-07-24T23:25:25.642Z,6.53
2018-07-24T23:27:52.994Z,8.10
2018-07-24T23:30:21.292Z,6.93
2018-07-24T23:32:48.643Z,7.20
2018-07-24T23:35:16.486Z,7.07
2018-07-24T23:37:44.918Z,7.30
2018-07-24T23:40:12.300Z,7.60
2018-07-24T23:42:40.025Z,7.27
2018-07-24T23:45:07.385Z,7.43
2018-07-24T23:47:34.787Z,7.87
2018-07-24T23:50:02.119Z,7.50
2018-07-24T23:52:29.550Z,7.07
2018-07-24T23:54:56.910Z,6.20
2018-07-24T23:57:24.831Z,7.03
2018-07-24T23:59:52.270Z,7.37
